Data for 09/11/2018

Time Sea-Level Adjusted Pressure Absolute Pressure Temperature Relative Humidity Dew Point   
(mb) (inHg) (mb) (inHg) (C) (F) (%) (C) (F)
00:05 1015 29.97 844 24.92 14.2 57.5 38 -0 32
00:10 1015 29.97 844 24.92 14.2 57.6 38 0.1 32.2
00:15 1015 29.97 844 24.92 14.2 57.5 38 0.2 32.3
00:20 1015 29.97 844 24.92 14.1 57.3 39 0.3 32.6
00:25 1015 29.97 844 24.92 13.9 57 40 0.5 32.9
00:30 1015 29.97 845 24.95 13.7 56.6 40 0.5 32.8
00:35 1015 29.97 845 24.95 13.6 56.4 41 0.5 32.9
00:40 1015 29.97 845 24.95 13.4 56.2 41 0.6 33
00:45 1015 29.97 845 24.95 13.4 56.1 41 0.5 32.8
00:50 1016 30 845 24.95 13.3 55.9 42 0.6 33.1
00:55 1016 30 845 24.95 13.4 56.2 41 0.4 32.7
01:00 1016 30 845 24.95 13.4 56.1 41 0.4 32.7
01:05 1016 30 845 24.95 13.4 56 41 0.5 32.9
01:10 1016 30 845 24.95 13.2 55.8 41 0.4 32.7
01:15 1016 30 845 24.95 13.2 55.8 42 0.5 32.9
01:20 1016 30 845 24.95 13.1 55.6 42 0.5 33
01:25 1016 30 845 24.95 13 55.4 43 0.6 33.2
01:30 1016 30 845 24.95 12.9 55.2 42 0.5 32.9
01:35 1016 30 845 24.95 12.9 55.2 42 0.5 32.9
01:40 1016 30 845 24.95 12.9 55.1 43 0.7 33.2
01:45 1016 30 845 24.95 12.8 55 43 0.5 32.9
01:50 1016 30 845 24.95 12.7 54.9 43 0.6 33.2
01:55 1016 30 845 24.95 12.7 54.8 43 0.4 32.8
02:00 1016 30 845 24.95 12.8 55 42 0.4 32.8
02:05 1016 30 845 24.95 12.7 54.8 43 0.6 33.1
02:10 1016 30 845 24.95 12.6 54.6 44 0.6 33
02:15 1016 30 845 24.95 12.5 54.4 44 0.6 33
02:20 1016 30 845 24.95 12.4 54.3 44 0.6 33.1
02:25 1016 30 845 24.95 12.1 53.7 46 0.9 33.6
02:30 1016 30 845 24.95 11.9 53.3 45 0.5 32.9
02:35 1016 30 845 24.95 11.9 53.3 46 0.6 33
02:40 1016 30 845 24.95 11.8 53.3 46 0.6 33
02:45 1016 30 845 24.95 11.8 53.3 45 0.4 32.7
02:50 1016 30 845 24.95 11.9 53.5 45 0.4 32.8
02:55 1016 30 845 24.95 12 53.6 45 0.4 32.7
03:00 1016 30 845 24.95 11.9 53.5 45 0.5 33
03:05 1016 30 845 24.95 11.8 53.2 46 0.6 33.1
03:10 1016 30 845 24.95 11.6 52.9 46 0.5 33
03:15 1016 30 845 24.95 11.6 52.8 46 0.4 32.7
03:20 1016 30 845 24.95 11.6 53 46 0.5 32.8
03:25 1016 30 845 24.95 11.5 52.8 46 0.5 32.9
03:30 1016 30 845 24.95 11.5 52.7 46 0.5 32.8
03:35 1016 30 845 24.95 11.4 52.4 48 0.7 33.2
03:40 1016 30 845 24.95 11.1 52 48 0.7 33.2
03:45 1016 30 845 24.95 10.8 51.5 49 0.6 33.1
03:50 1016 30 845 24.95 10.5 50.9 51 0.7 33.3
03:55 1016 30 845 24.95 10.2 50.4 51 0.5 32.9
04:00 1016 30 845 24.95 10.2 50.3 51 0.6 33.1
04:05 1016 30 845 24.95 10.1 50.2 51 0.6 33
04:10 1016 30 845 24.95 10 50.1 53 0.8 33.5
04:15 1016 30 845 24.95 9.7 49.5 54 0.8 33.4
04:20 1016 30 845 24.95 9.3 48.8 56 1.1 33.9
04:25 1016 30 845 24.95 9 48.1 57 0.9 33.7
04:30 1016 30 845 24.95 8.6 47.4 58 0.8 33.5
04:35 1016 30 845 24.95 8.4 47.1 59 0.8 33.5
04:40 1016 30 845 24.95 8.4 47 58 0.5 32.9
04:45 1016 30 845 24.95 8.7 47.6 57 0.6 33.1
04:50 1016 30 845 24.95 8.4 47.2 59 0.9 33.6
04:55 1016 30 845 24.95 8.1 46.6 60 0.9 33.6
05:00 1016 30 845 24.95 7.9 46.3 60 0.6 33.1
05:05 1016 30 845 24.95 8.2 46.8 58 0.5 32.9
05:10 1016 30 845 24.95 8.6 47.5 57 0.6 33.1
05:15 1016 30 845 24.95 8.5 47.3 58 0.6 33.1
05:20 1016 30 845 24.95 8.5 47.2 58 0.6 33.1
05:25 1016 30 845 24.95 8.4 47.1 58 0.6 33.1
05:30 1016 30 845 24.95 8.4 47.1 58 0.6 33.1
05:35 1016 30 845 24.95 8.3 46.9 59 0.9 33.6
05:40 1016 30 845 24.95 8 46.3 59 0.6 33
05:45 1016 30 845 24.95 8.1 46.5 59 0.5 33
05:50 1016 30 845 24.95 8.1 46.5 59 0.5 33
05:55 1016 30 845 24.95 8 46.4 59 0.6 33
06:00 1016 30 845 24.95 8.1 46.6 58 0.5 32.9
06:05 1016 30 845 24.95 8.2 46.8 58 0.5 32.9
06:10 1016 30 845 24.95 8.3 46.9 58 0.5 32.9
06:15 1016 30 845 24.95 8.4 47.1 57 0.5 32.9
06:20 1016 30 845 24.95 8.6 47.5 57 0.5 32.9
06:25 1016 30 845 24.95 8.8 47.9 56 0.6 33
06:30 1016 30 846 24.98 9 48.1 55 0.5 32.9
06:35 1016 30 846 24.98 9.1 48.3 55 0.6 33.1
06:40 1016 30 846 24.98 9.1 48.4 55 0.6 33.1
06:45 1017 30.03 846 24.98 9.3 48.7 55 0.7 33.3
06:50 1017 30.03 846 24.98 9.5 49 54 0.6 33.1
06:55 1017 30.03 846 24.98 9.5 49.1 55 0.9 33.6
07:00 1017 30.03 846 24.98 9.4 49 55 0.8 33.5
07:05 1017 30.03 846 24.98 9.6 49.3 55 1.1 34
07:10 1017 30.03 846 24.98 9.5 49.1 55 1 33.9
07:15 1017 30.03 846 24.98 9.6 49.3 55 1.2 34.2
07:20 1017 30.03 846 24.98 9.7 49.4 56 1.4 34.6
07:25 1017 30.03 846 24.98 9.6 49.4 56 1.3 34.4
07:30 1017 30.03 846 24.98 9.9 49.8 55 1.2 34.2
07:35 1017 30.03 846 24.98 10.2 50.3 53 1.2 34.1
07:40 1017 30.03 846 24.98 10.6 51.1 52 1.2 34.1
07:45 1017 30.03 846 24.98 11.1 51.9 50 1 33.8
07:50 1017 30.03 846 24.98 11.4 52.5 50 1.5 34.7
07:55 1017 30.03 846 24.98 11.6 52.8 49 1.1 34.1
08:00 1017 30.03 846 24.98 12.1 53.8 49 1.8 35.2
08:05 1017 30.03 846 24.98 12.3 54.2 46 1.1 34.1
08:10 1017 30.03 846 24.98 12.4 54.3 48 1.6 34.9
08:15 1017 30.03 846 24.98 12.6 54.8 47 1.7 35
08:20 1017 30.03 846 24.98 13 55.4 44 1.2 34.2
08:25 1016 30 846 24.98 13.8 56.8 41 0.9 33.7
08:30 1016 30 846 24.98 14.3 57.8 39 0.8 33.5
08:35 1016 30 846 24.98 14.9 58.8 38 1 33.7
08:40 1016 30 846 24.98 15.1 59.2 38 1.2 34.1
08:45 1016 30 846 24.98 15.3 59.5 39 1.4 34.5
08:50 1016 30 845 24.95 15.2 59.3 39 1.4 34.6
08:55 1016 30 846 24.98 15.7 60.3 37 1.1 34
09:00 1016 30 845 24.95 16 60.8 37 1.4 34.5
09:05 1016 30 845 24.95 15.6 60 38 1.4 34.6
09:10 1016 30 845 24.95 15.6 60.1 37 1.1 34.1
09:15 1016 30 845 24.95 15.8 60.5 36 1 33.8
09:20 1016 30 845 24.95 16.3 61.3 34 0.6 33.1
09:25 1016 30 845 24.95 15.9 60.6 39 2.1 35.8
09:30 1016 30 845 24.95 15.5 59.8 37 0.9 33.6
09:35 1016 30 845 24.95 15.6 60.1 37 1.2 34.2
09:40 1016 30 845 24.95 16.1 61 36 1.2 34.2
09:45 1016 30 845 24.95 16.7 62 35 1.4 34.5
09:50 1016 30 845 24.95 16.5 61.7 34 0.9 33.6
09:55 1016 30 845 24.95 17 62.7 34 1.1 34
10:00 1016 30 845 24.95 16.7 62.1 34 0.9 33.6
10:05 1016 30 845 24.95 16.5 61.6 33 0.4 32.7
10:10 1016 30 845 24.95 16.6 61.9 34 0.9 33.6
10:15 1016 30 845 24.95 16.7 62.1 32 0 32.1
10:20 1015 29.97 845 24.95 17.3 63.1 32 0.6 33.1
10:25 1015 29.97 845 24.95 17.1 62.8 33 0.7 33.3
10:30 1015 29.97 844 24.92 17.6 63.6 31 0.6 33
10:35 1015 29.97 844 24.92 17.4 63.4 32 0.6 33.1
10:40 1015 29.97 844 24.92 17.7 63.8 32 0.9 33.7
10:45 1015 29.97 844 24.92 17.6 63.6 34 1.4 34.6
10:50 1015 29.97 844 24.92 17.9 64.2 32 1 33.8
10:55 1015 29.97 844 24.92 17.8 64.1 33 1.5 34.8
11:00 1015 29.97 844 24.92 17.5 63.4 33 1.3 34.4
11:05 1015 29.97 844 24.92 17.2 62.9 33 1.1 33.9
11:10 1015 29.97 844 24.92 17.6 63.7 32 0.7 33.3
11:15 1015 29.97 844 24.92 18.4 65 32 1.5 34.6
11:20 1015 29.97 844 24.92 19.1 66.3 30 1.1 33.9
11:25 1015 29.97 844 24.92 19.3 66.8 30 1.6 34.9
11:30 1015 29.97 844 24.92 19.6 67.3 29 1.5 34.7
11:35 1015 29.97 844 24.92 19.8 67.6 30 1.7 35.1
11:40 1015 29.97 844 24.92 20.4 68.7 28 1.4 34.5
11:45 1014 29.94 844 24.92 21.1 70 27 1.7 35.1
11:50 1014 29.94 844 24.92 20.5 69 29 1.9 35.4
11:55 1014 29.94 844 24.92 20.4 68.8 28 1.5 34.7
12:00 1014 29.94 843 24.89 20.1 68.2 31 2.6 36.7
12:05 1014 29.94 843 24.89 18.8 65.9 32 1.8 35.3
12:10 1014 29.94 843 24.89 19.3 66.7 30 1.5 34.7
12:15 1014 29.94 843 24.89 19.6 67.2 32 2.4 36.4
12:20 1014 29.94 843 24.89 20.2 68.4 28 1.4 34.6
12:25 1014 29.94 843 24.89 20.1 68.3 30 2 35.7
12:30 1014 29.94 843 24.89 19.6 67.3 30 1.7 35.1
12:35 1014 29.94 843 24.89 20.4 68.7 29 1.7 35
12:40 1014 29.94 843 24.89 20.2 68.4 29 1.8 35.3
12:45 1014 29.94 843 24.89 20.3 68.5 30 2.2 35.9
12:50 1014 29.94 843 24.89 20.5 69 30 2.5 36.5
12:55 1014 29.94 843 24.89 21.1 70 27 1.6 34.8
13:00 1014 29.94 843 24.89 20.9 69.7 29 2.4 36.3
13:05 1014 29.94 843 24.89 21.1 69.9 29 2.7 36.8
13:10 1014 29.94 843 24.89 20.7 69.3 29 2.1 35.8
13:15 1014 29.94 843 24.89 20.3 68.5 29 1.8 35.2
13:20 1013 29.91 843 24.89 19.9 67.9 29 1.5 34.8
13:25 1013 29.91 843 24.89 20.7 69.3 26 0.9 33.7
13:30 1013 29.91 842 24.86 20.6 69.2 28 1.7 35.1
13:35 1013 29.91 842 24.86 21.3 70.4 28 2.1 35.7
13:40 1013 29.91 842 24.86 21.1 69.9 28 1.9 35.5
13:45 1013 29.91 842 24.86 20.6 69 28 1.6 34.8
13:50 1013 29.91 842 24.86 21.2 70.1 28 2.1 35.8
13:55 1013 29.91 842 24.86 21.5 70.6 26 1.2 34.1
14:00 1013 29.91 842 24.86 21.9 71.5 24 0.5 32.9
14:05 1013 29.91 842 24.86 22.3 72.2 24 0.8 33.5
14:10 1013 29.91 842 24.86 22.3 72.2 25 1.6 34.8
14:15 1013 29.91 842 24.86 21.9 71.4 25 1.4 34.5
14:20 1013 29.91 842 24.86 22.2 71.9 24 0.9 33.6
14:25 1013 29.91 842 24.86 22.5 72.5 25 1.8 35.2
14:30 1013 29.91 842 24.86 22.8 73 23 1.1 34
14:35 1013 29.91 842 24.86 22.8 73 24 1.4 34.5
14:40 1013 29.91 842 24.86 23 73.4 23 1.2 34.2
14:45 1013 29.91 842 24.86 22.6 72.7 25 1.6 34.9
14:50 1013 29.91 842 24.86 22.8 73.1 23 0.7 33.3
14:55 1013 29.91 842 24.86 23.3 74 21 0.3 32.5
15:00 1013 29.91 842 24.86 23.6 74.5 21 0.3 32.5
15:05 1012 29.88 842 24.86 23.8 74.8 21 0.6 33
15:10 1012 29.88 842 24.86 23.7 74.6 21 0.1 32.3
15:15 1012 29.88 842 24.86 23.7 74.6 20 -0.5 31
15:20 1012 29.88 842 24.86 23.2 73.7 21 -0.3 31.4
15:25 1012 29.88 841 24.83 23.2 73.8 20 -0.6 31
15:30 1012 29.88 841 24.83 23.3 73.9 21 -0.1 31.9
15:35 1012 29.88 841 24.83 23.7 74.6 20 -0.1 31.8
15:40 1012 29.88 841 24.83 23.3 74 20 -0.8 30.6
15:45 1012 29.88 841 24.83 22.7 72.8 22 -0.2 31.6
15:50 1012 29.88 841 24.83 22.5 72.4 22 0.1 32.2
15:55 1012 29.88 841 24.83 21.9 71.5 23 0.1 32.1
16:00 1012 29.88 841 24.83 21.5 70.7 24 0.5 32.8
16:05 1012 29.88 841 24.83 22.1 71.7 24 0.5 32.9
16:10 1012 29.88 841 24.83 22.5 72.5 22 -0.1 31.9
16:15 1012 29.88 841 24.83 22.6 72.7 22 0.2 32.4
16:20 1012 29.88 841 24.83 22.9 73.3 23 1.1 34
16:25 1012 29.88 841 24.83 22.8 73.1 23 1 33.8
16:30 1012 29.88 841 24.83 22.4 72.4 24 1.1 33.9
16:35 1012 29.88 841 24.83 21.8 71.3 25 1.1 34
16:40 1012 29.88 841 24.83 21.5 70.8 26 1.4 34.6
16:45 1012 29.88 841 24.83 21.4 70.6 24 0.4 32.8
16:50 1012 29.88 841 24.83 21.3 70.4 26 1 33.8
16:55 1012 29.88 841 24.83 21.1 69.9 25 0.3 32.5
17:00 1012 29.88 841 24.83 20.9 69.5 26 1.1 33.9
17:05 1012 29.88 841 24.83 20.6 69 29 1.9 35.4
17:10 1012 29.88 841 24.83 19.9 67.8 28 1 33.7
17:15 1012 29.88 841 24.83 20.2 68.3 26 0.4 32.7
17:20 1012 29.88 841 24.83 20.1 68.1 28 1.1 34.1
17:25 1012 29.88 841 24.83 19.7 67.5 28 1 33.7
17:30 1012 29.88 841 24.83 19.6 67.2 28 0.7 33.3
17:35 1012 29.88 841 24.83 19.5 67.1 28 0.5 32.9
17:40 1012 29.88 841 24.83 19.4 66.9 28 0.8 33.4
17:45 1012 29.88 841 24.83 19.5 67.1 29 1.1 34
17:50 1012 29.88 841 24.83 19.6 67.3 28 0.8 33.4
17:55 1012 29.88 842 24.86 19.6 67.2 28 0.7 33.3
18:00 1013 29.91 842 24.86 19.5 67 29 1.1 33.9
18:05 1013 29.91 842 24.86 19.4 66.9 29 1.2 34.2
18:10 1013 29.91 842 24.86 19.3 66.7 30 1.6 34.9
18:15 1013 29.91 842 24.86 19.1 66.4 30 1.4 34.5
18:20 1013 29.91 842 24.86 19 66.2 30 1.2 34.1
18:25 1013 29.91 842 24.86 19 66.1 31 1.5 34.7
18:30 1013 29.91 842 24.86 18.6 65.4 31 1.3 34.3
18:35 1013 29.91 842 24.86 18.4 65.2 32 1.7 35
18:40 1013 29.91 842 24.86 18.5 65.3 31 1.1 34
18:45 1013 29.91 842 24.86 18.6 65.5 29 0.3 32.6
18:50 1013 29.91 842 24.86 18.7 65.6 29 0.4 32.7
18:55 1013 29.91 842 24.86 18.4 65.2 29 0.1 32.2
19:00 1013 29.91 842 24.86 18.4 65 27 -0.9 30.4
19:05 1013 29.91 842 24.86 18.5 65.3 26 -1 30.1
19:10 1013 29.91 842 24.86 18.4 65.1 27 -0.9 30.4
19:15 1013 29.91 842 24.86 18.2 64.8 27 -0.8 30.5
19:20 1013 29.91 842 24.86 18.1 64.5 28 -0.7 30.8
19:25 1013 29.91 842 24.86 17.9 64.1 28 -0.7 30.7
19:30 1013 29.91 842 24.86 17.8 64 28 -0.8 30.6
19:35 1013 29.91 842 24.86 17.8 64 28 -0.6 30.8
19:40 1013 29.91 842 24.86 17.7 63.9 28 -0.8 30.6
19:45 1013 29.91 842 24.86 17.7 63.8 29 -0.6 30.9
19:50 1013 29.91 842 24.86 17.6 63.7 29 -0.5 31.2
19:55 1013 29.91 842 24.86 17.5 63.5 29 -0.4 31.3
20:00 1013 29.91 842 24.86 17.4 63.4 29 -0.5 31.1
20:05 1013 29.91 842 24.86 17.5 63.5 29 -0.5 31.1
20:10 1013 29.91 842 24.86 17.5 63.6 29 -0.4 31.4
20:15 1013 29.91 842 24.86 17.5 63.5 29 -0.5 31.1
20:20 1012 29.88 842 24.86 17.4 63.3 30 -0.3 31.4
20:25 1012 29.88 842 24.86 17.3 63.2 30 -0.5 31.1
20:30 1013 29.91 842 24.86 17.3 63.1 30 -0.4 31.3
20:35 1013 29.91 842 24.86 17.2 63 30 -0.5 31
20:40 1013 29.91 842 24.86 17.3 63.1 29 -0.7 30.7
20:45 1013 29.91 842 24.86 17.3 63.2 30 -0.4 31.4
20:50 1013 29.91 842 24.86 17.2 63 30 -0.5 31
20:55 1013 29.91 843 24.89 17.1 62.8 30 -0.6 31
21:00 1013 29.91 843 24.89 17 62.7 30 -0.5 31.1
21:05 1014 29.94 843 24.89 16.9 62.5 30 -0.5 31.1
21:10 1014 29.94 843 24.89 16.8 62.3 31 -0.3 31.4
21:15 1014 29.94 843 24.89 16.7 62 31 -0.4 31.3
21:20 1014 29.94 843 24.89 16.6 61.8 31 -0.5 31.2
21:25 1014 29.94 843 24.89 16.6 61.8 31 -0.4 31.3
21:30 1014 29.94 843 24.89 16.5 61.6 32 -0.3 31.5
21:35 1014 29.94 843 24.89 16.4 61.4 32 -0.2 31.6
21:40 1014 29.94 843 24.89 16.3 61.3 32 -0.3 31.5
21:45 1014 29.94 843 24.89 16.2 61.1 32 -0.3 31.5
21:50 1014 29.94 843 24.89 16 60.9 33 -0.2 31.6
21:55 1014 29.94 843 24.89 15.9 60.7 34 0.1 32.1
22:00 1014 29.94 843 24.89 15.8 60.4 36 0.8 33.5
22:05 1014 29.94 843 24.89 15.7 60.2 36 0.8 33.5
22:10 1014 29.94 843 24.89 15.5 59.9 37 0.9 33.7
22:15 1014 29.94 843 24.89 15.3 59.6 37 0.9 33.6
22:20 1014 29.94 843 24.89 15.2 59.4 36 0.3 32.6
22:25 1014 29.94 843 24.89 15.1 59.2 36 0.2 32.4
22:30 1014 29.94 843 24.89 15 59 37 0.4 32.7
22:35 1014 29.94 843 24.89 14.8 58.7 38 0.6 33.1
22:40 1014 29.94 843 24.89 14.7 58.5 37 0.3 32.5
22:45 1014 29.94 844 24.92 14.7 58.4 37 0.3 32.5
22:50 1014 29.94 843 24.89 14.7 58.4 37 0.1 32.1
22:55 1014 29.94 843 24.89 14.6 58.3 37 0.2 32.4
23:00 1014 29.94 843 24.89 14.4 57.9 38 0.3 32.6
23:05 1014 29.94 843 24.89 14.2 57.5 38 0.3 32.5
23:10 1014 29.94 843 24.89 14.2 57.5 39 0.4 32.7
23:15 1014 29.94 843 24.89 14 57.1 40 0.6 33.1
23:20 1014 29.94 843 24.89 13.7 56.7 41 0.7 33.2
23:25 1014 29.94 843 24.89 13.6 56.5 41 0.6 33.2
23:30 1014 29.94 843 24.89 13.4 56.2 42 0.8 33.4
23:35 1014 29.94 843 24.89 13.4 56.1 42 0.7 33.3
23:40 1014 29.94 843 24.89 13.5 56.4 41 0.7 33.2
23:45 1014 29.94 843 24.89 13.8 56.8 40 0.6 33.1
23:50 1014 29.94 843 24.89 13.9 56.9 41 0.7 33.3
23:55 1014 29.94 843 24.89 13.7 56.7 41 0.8 33.5
24:00 1014 29.94 843 24.89 13.7 56.6 41 0.8 33.4